Time;durP1;ratioP1;P1;durP2;ratioP2;P2;SDS_P1;SDS_P2;PMS_P1;PMS_P2;Temp;Humidity;BMP_temperature;BMP_pressure;BME280_temperature;BME280_humidity;BME280_pressure;Samples;Min_cycle;Max_cycle;Signal;HPM_P1;HPM_P2
2023/12/27 00:00:40;;;;;;;8.80;1.70;;;;;;;2.91;100.00;98815.15;109120;1257;59734;-61
2023/12/27 00:03:46;;;;;;;10.00;1.80;;;;;;;2.92;100.00;98840.65;109139;1257;58835;-61
2023/12/27 00:06:34;;;;;;;6.10;1.40;;;;;;;2.91;100.00;98838.25;108999;1257;72559;-62
2023/12/27 00:09:23;;;;;;;6.70;1.40;;;;;;;2.83;100.00;98848.25;109137;1257;67916;-61
2023/12/27 00:12:13;;;;;;;5.70;1.40;;;;;;;2.76;100.00;98848.19;109124;1257;72350;-61
2023/12/27 00:15:01;;;;;;;7.40;1.60;;;;;;;2.70;100.00;98863.80;109131;1257;57404;-60
2023/12/27 00:17:49;;;;;;;9.10;2.10;;;;;;;2.67;100.00;98858.42;109156;1257;59233;-61
2023/12/27 00:20:36;;;;;;;7.40;1.50;;;;;;;2.63;100.00;98864.93;109005;1257;71874;-61
2023/12/27 00:23:27;;;;;;;9.30;1.50;;;;;;;2.58;100.00;98864.21;109049;1257;67558;-60
2023/12/27 00:26:15;;;;;;;6.50;1.60;;;;;;;2.54;100.00;98864.65;108996;1258;72595;-62
2023/12/27 00:29:03;;;;;;;6.70;1.40;;;;;;;2.50;100.00;98873.11;108992;1258;57321;-60
2023/12/27 00:31:51;;;;;;;9.70;1.50;;;;;;;2.47;100.00;98875.77;109131;1257;60354;-61
2023/12/27 00:34:39;;;;;;;7.90;1.90;;;;;;;2.47;100.00;98881.55;109028;1258;74068;-61
2023/12/27 00:37:27;;;;;;;7.10;1.40;;;;;;;2.47;100.00;98882.96;107627;1262;1002701;-59
2023/12/27 00:40:15;;;;;;;9.50;1.30;;;;;;;2.45;100.00;98886.58;109130;1257;71424;-62
2023/12/27 00:43:04;;;;;;;6.80;1.50;;;;;;;2.42;100.00;98878.02;109144;1257;58490;-60
2023/12/27 00:45:52;;;;;;;6.20;1.60;;;;;;;2.38;100.00;98882.43;109135;1258;60458;-62
2023/12/27 00:48:40;;;;;;;8.50;1.80;;;;;;;2.36;100.00;98896.20;109017;1257;73305;-61
2023/12/27 00:51:28;;;;;;;6.40;1.40;;;;;;;2.36;100.00;98900.60;109109;1257;69131;-60
2023/12/27 00:54:16;;;;;;;7.50;1.40;;;;;;;2.36;100.00;98908.33;109150;1257;72410;-59
2023/12/27 00:57:04;;;;;;;7.20;1.40;;;;;;;2.36;100.00;98910.61;109094;1257;57482;-61
2023/12/27 00:59:52;;;;;;;8.00;1.60;;;;;;;2.35;100.00;98907.65;109159;1258;58733;-61
2023/12/27 01:02:41;;;;;;;6.80;1.40;;;;;;;2.35;100.00;98911.69;109067;1257;73787;-60
2023/12/27 01:05:29;;;;;;;8.50;1.60;;;;;;;2.37;100.00;98916.30;109120;1257;68926;-60
2023/12/27 01:08:17;;;;;;;8.80;1.70;;;;;;;2.37;100.00;98923.63;108942;1260;72769;-61
2023/12/27 01:11:05;;;;;;;6.10;1.50;;;;;;;2.42;100.00;98928.63;109124;1258;57346;-62
2023/12/27 01:13:53;;;;;;;8.70;1.50;;;;;;;2.44;100.00;98938.33;109040;1257;61370;-60
2023/12/27 01:16:40;;;;;;;8.90;1.60;;;;;;;2.42;100.00;98954.84;109076;1257;74186;-59
2023/12/27 01:19:28;;;;;;;6.40;1.60;;;;;;;2.38;100.00;98946.50;109052;1257;66598;-60
2023/12/27 01:22:16;;;;;;;9.50;1.60;;;;;;;2.36;100.00;98961.02;109123;1258;70977;-60
2023/12/27 01:25:06;;;;;;;5.80;1.30;;;;;;;2.34;100.00;98962.52;108994;1257;58621;-61
2023/12/27 01:27:54;;;;;;;9.20;1.50;;;;;;;2.30;100.00;98965.04;109139;1257;60287;-60
2023/12/27 01:30:42;;;;;;;7.60;1.30;;;;;;;2.21;100.00;98950.57;109038;1257;71476;-60
2023/12/27 01:33:30;;;;;;;7.30;1.60;;;;;;;2.23;100.00;98980.00;109129;1257;65410;-59
2023/12/27 01:36:20;;;;;;;8.10;1.60;;;;;;;2.22;100.00;98981.10;106849;1257;1002489;-61
2023/12/27 01:39:08;;;;;;;7.40;1.70;;;;;;;2.20;100.00;98984.23;108910;1258;57290;-60
2023/12/27 01:41:56;;;;;;;6.80;1.50;;;;;;;2.18;100.00;98982.20;109161;1257;60056;-59
2023/12/27 01:44:43;;;;;;;7.90;2.00;;;;;;;2.20;100.00;98980.88;109159;1257;72847;-60
2023/12/27 01:47:33;;;;;;;9.50;1.70;;;;;;;2.23;100.00;98983.89;109136;1258;66869;-61
2023/12/27 01:50:21;;;;;;;6.60;1.40;;;;;;;2.27;100.00;98986.27;109082;1258;72448;-60
2023/12/27 01:53:09;;;;;;;5.50;1.60;;;;;;;2.30;100.00;98982.70;109036;1259;57321;-61
2023/12/27 01:55:56;;;;;;;9.60;1.80;;;;;;;2.34;100.00;98995.27;109157;1258;58965;-60
2023/12/27 01:58:44;;;;;;;7.20;1.60;;;;;;;2.35;100.00;99005.73;109053;1258;74202;-61
2023/12/27 02:01:32;;;;;;;6.50;1.40;;;;;;;2.35;100.00;99002.89;109111;1258;67955;-60
2023/12/27 02:04:19;;;;;;;8.30;1.50;;;;;;;2.36;100.00;99007.92;109035;1257;71543;-60
2023/12/27 02:07:09;;;;;;;9.30;2.00;;;;;;;2.36;100.00;99008.98;109102;1258;57350;-60
2023/12/27 02:10:14;;;;;;;6.90;1.80;;;;;;;2.38;100.00;99026.36;108962;1258;58718;-62
2023/12/27 02:13:06;;;;;;;9.00;1.60;;;;;;;2.43;100.00;99035.36;109146;1257;73293;-61
2023/12/27 02:15:54;;;;;;;8.20;1.80;;;;;;;2.45;100.00;99033.63;108998;1257;68443;-61
2023/12/27 02:18:42;;;;;;;8.00;1.40;;;;;;;2.49;100.00;99036.94;109041;1258;70788;-60
2023/12/27 02:21:31;;;;;;;8.60;1.60;;;;;;;2.52;100.00;99042.84;109153;1257;57277;-60
2023/12/27 02:24:22;;;;;;;10.10;2.50;;;;;;;2.55;100.00;99055.13;109079;1258;59042;-60
2023/12/27 02:27:11;;;;;;;10.00;1.80;;;;;;;2.59;100.00;99057.87;109063;1257;73180;-61
2023/12/27 02:29:59;;;;;;;7.20;1.70;;;;;;;2.60;100.00;99060.58;109048;1258;66617;-61
2023/12/27 02:32:50;;;;;;;6.60;1.60;;;;;;;2.62;100.00;99068.15;109093;1259;73648;-60
2023/12/27 02:35:39;;;;;;;8.50;1.80;;;;;;;2.60;100.00;99081.45;109036;1258;57576;-61
2023/12/27 02:38:27;;;;;;;6.30;1.50;;;;;;;2.53;100.00;99088.65;109022;1259;60449;-60
2023/12/27 02:41:15;;;;;;;8.00;1.70;;;;;;;2.46;100.00;99085.97;109141;1259;73182;-60
2023/12/27 02:44:03;;;;;;;10.70;1.60;;;;;;;2.39;100.00;99091.44;109054;1258;69161;-62
2023/12/27 02:46:50;;;;;;;7.00;1.80;;;;;;;2.38;100.00;99101.47;109091;1259;71117;-60
2023/12/27 02:49:38;;;;;;;6.70;1.50;;;;;;;2.38;100.00;99104.94;109024;1259;58550;-60
2023/12/27 02:52:26;;;;;;;7.00;1.60;;;;;;;2.41;100.00;99113.02;109099;1259;60073;-61
2023/12/27 02:55:14;;;;;;;8.80;1.60;;;;;;;2.46;100.00;99117.13;109124;1257;71901;-61
2023/12/27 02:58:03;;;;;;;8.30;1.50;;;;;;;2.43;100.00;99118.50;109149;1257;69016;-60
2023/12/27 03:00:50;;;;;;;7.10;1.30;;;;;;;2.48;100.00;99132.92;109117;1260;73408;-60
2023/12/27 03:03:39;;;;;;;7.80;1.80;;;;;;;2.49;100.00;99137.08;108971;1258;58595;-59
2023/12/27 03:06:27;;;;;;;8.10;1.40;;;;;;;2.47;100.00;99144.16;108390;1258;1002919;-61
2023/12/27 03:09:15;;;;;;;9.50;1.60;;;;;;;2.46;100.00;99150.19;109059;1257;72209;-60
2023/12/27 03:12:03;;;;;;;11.30;2.00;;;;;;;2.44;100.00;99153.12;109124;1258;67549;-60
2023/12/27 03:14:51;;;;;;;7.00;1.70;;;;;;;2.45;100.00;99168.85;108987;1257;71406;-61
2023/12/27 03:17:39;;;;;;;7.50;1.80;;;;;;;2.48;100.00;99166.20;109158;1257;58953;-60
2023/12/27 03:20:27;;;;;;;6.80;1.90;;;;;;;2.52;100.00;99162.98;109006;1262;60389;-58
2023/12/27 03:23:14;;;;;;;8.70;1.60;;;;;;;2.54;100.00;99169.84;109136;1257;74021;-60
2023/12/27 03:26:02;;;;;;;10.50;1.80;;;;;;;2.57;100.00;99171.61;109079;1257;67889;-60
2023/12/27 03:28:50;;;;;;;8.20;1.30;;;;;;;2.56;100.00;99177.65;109084;1257;71478;-60
2023/12/27 03:31:37;;;;;;;7.60;2.00;;;;;;;2.62;100.00;99184.45;109095;1257;57476;-62
2023/12/27 03:34:25;;;;;;;6.00;1.60;;;;;;;2.66;100.00;99188.27;109076;1257;58881;-60
2023/12/27 03:37:14;;;;;;;7.20;1.60;;;;;;;2.68;100.00;99192.70;109142;1258;70642;-60
2023/12/27 03:40:03;;;;;;;6.50;1.00;;;;;;;2.68;100.00;99203.35;109139;1257;67912;-59
2023/12/27 03:42:50;;;;;;;6.60;1.50;;;;;;;2.69;100.00;99208.05;109137;1257;72453;-60
2023/12/27 03:45:39;;;;;;;5.90;1.70;;;;;;;2.68;100.00;99213.02;109135;1257;57304;-59
2023/12/27 03:48:26;;;;;;;6.80;1.50;;;;;;;2.66;100.00;99218.54;109095;1257;58907;-60
2023/12/27 03:51:14;;;;;;;8.60;1.60;;;;;;;2.67;100.00;99224.80;109158;1257;72856;-60
2023/12/27 03:54:02;;;;;;;6.20;1.30;;;;;;;2.69;100.00;99229.73;109116;1257;67573;-63
2023/12/27 03:56:50;;;;;;;6.30;1.50;;;;;;;2.71;100.00;99227.73;109126;1257;72053;-60
2023/12/27 03:59:38;;;;;;;7.80;1.40;;;;;;;2.71;100.00;99231.90;108912;1260;58002;-60
2023/12/27 04:02:25;;;;;;;7.00;1.50;;;;;;;2.74;100.00;99238.95;108928;1260;60305;-60
2023/12/27 04:05:13;;;;;;;8.80;1.70;;;;;;;2.76;100.00;99238.00;108941;1261;73103;-60
2023/12/27 04:08:01;;;;;;;6.70;1.30;;;;;;;2.79;100.00;99243.23;108754;1260;175119;-61
2023/12/27 04:10:49;;;;;;;8.60;1.60;;;;;;;2.81;100.00;99239.42;108899;1260;73898;-60
2023/12/27 04:13:36;;;;;;;8.70;1.80;;;;;;;2.82;99.98;99247.94;108921;1260;57325;-60
2023/12/27 04:16:24;;;;;;;8.10;1.80;;;;;;;2.83;99.63;99242.11;108929;1260;60176;-63
2023/12/27 04:19:12;;;;;;;6.70;1.40;;;;;;;2.86;99.39;99242.80;108867;1262;72014;-59
2023/12/27 04:22:00;;;;;;;9.10;1.70;;;;;;;2.89;99.27;99248.22;108843;1262;68413;-60
2023/12/27 04:24:48;;;;;;;5.20;1.30;;;;;;;2.93;99.32;99255.55;108844;1263;72762;-61
2023/12/27 04:27:38;;;;;;;9.90;1.60;;;;;;;2.94;99.62;99265.11;108807;1262;57420;-61
2023/12/27 04:30:26;;;;;;;9.40;1.80;;;;;;;2.95;99.52;99268.22;108816;1261;60112;-60
2023/12/27 04:33:14;;;;;;;7.30;1.50;;;;;;;2.96;99.16;99273.08;109098;1263;73048;-60
2023/12/27 04:36:03;;;;;;;8.60;1.60;;;;;;;2.96;99.11;99283.02;109103;1257;67626;-60
2023/12/27 04:38:50;;;;;;;7.80;1.50;;;;;;;2.96;98.81;99288.09;109050;1258;71479;-60
2023/12/27 04:41:38;;;;;;;10.50;1.90;;;;;;;2.96;98.37;99294.27;108962;1257;57302;-60
2023/12/27 04:44:26;;;;;;;7.80;1.80;;;;;;;2.97;98.33;99299.29;109025;1260;61084;-61
2023/12/27 04:47:16;;;;;;;7.70;1.40;;;;;;;2.98;98.05;99310.45;109036;1258;70970;-60
2023/12/27 04:50:06;;;;;;;8.50;1.40;;;;;;;2.94;97.47;99311.55;109042;1260;69076;-59
2023/12/27 04:52:55;;;;;;;7.00;1.40;;;;;;;2.97;97.61;99318.70;108988;1259;73727;-60
2023/12/27 04:55:42;;;;;;;7.90;1.50;;;;;;;2.98;97.30;99326.61;109035;1259;57747;-59
2023/12/27 04:58:35;;;;;;;8.00;1.60;;;;;;;2.97;96.86;99325.06;108990;1257;60577;-60
2023/12/27 05:01:23;;;;;;;8.20;1.80;;;;;;;2.95;96.46;99331.48;109044;1260;73757;-61
2023/12/27 05:04:11;;;;;;;7.50;1.60;;;;;;;2.96;96.92;99339.63;109128;1260;66570;-60
2023/12/27 05:06:59;;;;;;;8.90;1.70;;;;;;;2.97;96.94;99338.02;109046;1259;73686;-61
2023/12/27 05:09:47;;;;;;;8.30;1.40;;;;;;;2.96;97.59;99340.52;108995;1259;57368;-63
2023/12/27 05:12:35;;;;;;;9.00;1.90;;;;;;;2.95;98.21;99343.56;109055;1264;60372;-61
2023/12/27 05:15:23;;;;;;;7.20;1.60;;;;;;;2.94;98.93;99350.11;109141;1259;70504;-59
2023/12/27 05:18:11;;;;;;;10.20;1.90;;;;;;;2.92;99.14;99348.45;109145;1260;68725;-61
2023/12/27 05:21:01;;;;;;;8.00;1.70;;;;;;;2.92;98.99;99362.33;109034;1259;71144;-63
2023/12/27 05:23:48;;;;;;;7.80;1.60;;;;;;;2.90;98.48;99364.69;109109;1258;57378;-61
2023/12/27 05:26:36;;;;;;;7.10;1.40;;;;;;;2.89;98.58;99373.34;109161;1258;58733;-59
2023/12/27 05:29:24;;;;;;;7.70;1.70;;;;;;;2.89;98.05;99380.69;109095;1261;74318;-61
2023/12/27 05:32:15;;;;;;;9.10;1.60;;;;;;;2.88;98.23;99387.77;109058;1259;67853;-61
2023/12/27 05:35:03;;;;;;;9.10;1.50;;;;;;;2.88;98.04;99392.16;109051;1259;72738;-61
2023/12/27 05:37:51;;;;;;;8.40;1.50;;;;;;;2.86;98.11;99397.33;108990;1258;57244;-59
2023/12/27 05:40:39;;;;;;;9.30;1.60;;;;;;;2.83;98.61;99401.02;109095;1260;60269;-60
2023/12/27 05:43:27;;;;;;;9.30;1.70;;;;;;;2.80;98.57;99407.52;109071;1260;73813;-61
2023/12/27 05:46:16;;;;;;;8.40;1.50;;;;;;;2.78;98.91;99407.80;109130;1259;67564;-59
2023/12/27 05:49:03;;;;;;;10.60;2.10;;;;;;;2.76;99.11;99405.99;109121;1259;73744;-59
2023/12/27 05:51:52;;;;;;;10.90;1.70;;;;;;;2.74;99.12;99407.65;109147;1259;57592;-60
2023/12/27 05:54:39;;;;;;;11.60;2.10;;;;;;;2.70;99.10;99421.33;109032;1260;58835;-60
2023/12/27 05:57:28;;;;;;;9.20;1.80;;;;;;;2.68;99.54;99427.58;109137;1259;71588;-60
2023/12/27 06:00:16;;;;;;;10.30;2.00;;;;;;;2.66;99.70;99430.17;109069;1259;66284;-60
2023/12/27 06:03:03;;;;;;;16.00;2.90;;;;;;;2.65;99.71;99440.89;109009;1260;73756;-60
2023/12/27 06:05:52;;;;;;;10.60;2.10;;;;;;;2.65;99.81;99447.90;108995;1258;57371;-60
2023/12/27 06:08:39;;;;;;;9.00;2.20;;;;;;;2.63;99.79;99447.69;109116;1260;60352;-60
2023/12/27 06:11:27;;;;;;;6.60;1.60;;;;;;;2.60;99.84;99456.23;109072;1260;72914;-60
2023/12/27 06:14:15;;;;;;;9.30;1.90;;;;;;;2.60;100.00;99460.64;108972;1259;68714;-61
2023/12/27 06:17:03;;;;;;;9.40;2.10;;;;;;;2.60;99.97;99469.01;109084;1260;71089;-61
2023/12/27 06:19:50;;;;;;;10.00;2.30;;;;;;;2.55;100.00;99462.64;109085;1259;57285;-61
2023/12/27 06:22:38;;;;;;;8.60;2.40;;;;;;;2.62;100.00;99476.29;108954;1259;61554;-62
2023/12/27 06:25:26;;;;;;;12.60;1.80;;;;;;;2.60;100.00;99484.26;109074;1260;72879;-60
2023/12/27 06:28:13;;;;;;;10.40;2.10;;;;;;;2.60;100.00;99492.11;109028;1258;68234;-59
2023/12/27 06:31:01;;;;;;;6.40;1.90;;;;;;;2.61;100.00;99501.23;109049;1260;71357;-61
2023/12/27 06:33:49;;;;;;;9.90;2.10;;;;;;;2.62;100.00;99505.54;109100;1260;57674;-62
2023/12/27 06:36:38;;;;;;;10.70;1.70;;;;;;;2.63;100.00;99509.66;109151;1259;58545;-62
2023/12/27 06:39:28;;;;;;;8.90;1.80;;;;;;;2.63;100.00;99511.94;109123;1258;73139;-62
2023/12/27 06:42:16;;;;;;;8.80;1.90;;;;;;;2.63;100.00;99525.29;109085;1260;66791;-62
2023/12/27 06:45:05;;;;;;;11.80;2.00;;;;;;;2.59;100.00;99522.33;109081;1260;71831;-63
2023/12/27 06:47:53;;;;;;;8.70;1.70;;;;;;;2.56;100.00;99532.48;109065;1260;57323;-61
2023/12/27 06:50:42;;;;;;;7.00;1.80;;;;;;;2.54;100.00;99537.14;109034;1259;61044;-62
2023/12/27 06:53:30;;;;;;;7.70;1.80;;;;;;;2.53;100.00;99536.66;108944;1259;74134;-61
2023/12/27 06:56:17;;;;;;;10.40;1.90;;;;;;;2.48;100.00;99546.38;109061;1260;66668;-61
2023/12/27 06:59:06;;;;;;;11.30;2.10;;;;;;;2.43;100.00;99549.80;109055;1259;73393;-60
2023/12/27 07:01:53;;;;;;;11.40;2.20;;;;;;;2.36;100.00;99561.16;109091;1259;58690;-61
2023/12/27 07:04:43;;;;;;;9.40;2.00;;;;;;;2.32;100.00;99563.82;109123;1260;61087;-61
2023/12/27 07:07:31;;;;;;;7.00;1.80;;;;;;;2.28;100.00;99569.65;109037;1259;73041;-61
2023/12/27 07:10:18;;;;;;;9.80;2.00;;;;;;;2.26;100.00;99574.11;108985;1259;67897;-63
2023/12/27 07:13:08;;;;;;;12.50;1.80;;;;;;;2.26;100.00;99569.06;109014;1260;75860;-61
2023/12/27 07:15:56;;;;;;;10.60;2.20;;;;;;;2.25;100.00;99575.02;109124;1260;57264;-61
2023/12/27 07:18:43;;;;;;;7.60;2.20;;;;;;;2.25;100.00;99576.45;109008;1258;59997;-61
2023/12/27 07:21:31;;;;;;;11.30;2.40;;;;;;;2.23;100.00;99577.41;109096;1258;73978;-61
2023/12/27 07:24:19;;;;;;;11.10;2.20;;;;;;;2.24;100.00;99582.09;109033;1260;68026;-61
2023/12/27 07:27:08;;;;;;;9.70;1.90;;;;;;;2.25;100.00;99596.23;109056;1260;72794;-61
2023/12/27 07:29:55;;;;;;;9.10;2.20;;;;;;;2.34;100.00;99597.52;109015;1260;58896;-61
2023/12/27 07:32:43;;;;;;;9.20;2.20;;;;;;;2.43;100.00;99609.00;109134;1260;61080;-63
2023/12/27 07:35:30;;;;;;;10.60;2.00;;;;;;;2.49;100.00;99607.42;109037;1259;73717;-61
2023/12/27 07:38:18;;;;;;;7.20;1.50;;;;;;;2.56;100.00;99609.52;109005;1260;68670;-61
2023/12/27 07:41:06;;;;;;;9.10;2.40;;;;;;;2.63;100.00;99619.70;108911;1260;72544;-61
2023/12/27 07:43:54;;;;;;;9.70;2.20;;;;;;;2.68;100.00;99627.48;108976;1259;59609;-62
2023/12/27 07:46:43;;;;;;;9.20;2.20;;;;;;;2.76;100.00;99635.09;108888;1260;61091;-62
2023/12/27 07:49:31;;;;;;;9.60;1.70;;;;;;;2.89;100.00;99638.82;108971;1260;70791;-62
2023/12/27 07:52:19;;;;;;;10.40;2.20;;;;;;;2.98;100.00;99638.16;109107;1259;67912;-61
2023/12/27 07:55:08;;;;;;;8.00;2.00;;;;;;;3.04;99.68;99646.58;108969;1260;71137;-64
2023/12/27 07:57:55;;;;;;;8.90;2.00;;;;;;;3.10;99.31;99657.86;108968;1261;57276;-60
2023/12/27 08:00:43;;;;;;;10.40;2.10;;;;;;;3.19;98.68;99666.69;109070;1260;60005;-62
2023/12/27 08:03:31;;;;;;;8.80;1.80;;;;;;;3.27;98.56;99662.94;108986;1260;71486;-61
2023/12/27 08:06:19;;;;;;;8.60;1.90;;;;;;;3.32;98.19;99665.49;109051;1260;65722;-61
2023/12/27 08:09:07;;;;;;;9.40;1.90;;;;;;;3.34;98.67;99675.91;109063;1260;72418;-61
2023/12/27 08:11:54;;;;;;;8.10;2.20;;;;;;;3.35;97.96;99679.14;108986;1260;58531;-62
2023/12/27 08:14:43;;;;;;;7.60;2.20;;;;;;;3.43;98.16;99690.31;108975;1261;61367;-62
2023/12/27 08:17:31;;;;;;;8.50;2.00;;;;;;;3.47;97.22;99696.57;108899;1257;73666;-62
2023/12/27 08:20:19;;;;;;;8.90;2.20;;;;;;;3.52;96.11;99696.49;107400;1259;1014983;-62
2023/12/27 08:23:13;;;;;;;8.10;2.00;;;;;;;3.50;95.63;99697.48;109073;1260;73389;-62
2023/12/27 08:26:01;;;;;;;9.90;2.20;;;;;;;3.55;95.07;99695.47;109045;1260;57511;-62
2023/12/27 08:28:48;;;;;;;8.20;2.10;;;;;;;3.73;93.81;99695.50;109031;1259;61601;-61
2023/12/27 08:31:37;;;;;;;11.00;2.40;;;;;;;4.47;92.04;99699.46;109001;1260;71241;-61
2023/12/27 08:34:25;;;;;;;8.70;2.30;;;;;;;5.72;88.56;99704.75;109064;1259;67791;-61
2023/12/27 08:37:14;;;;;;;8.40;2.00;;;;;;;6.98;83.20;99699.53;108951;1261;73506;-62
2023/12/27 08:40:03;;;;;;;10.60;2.00;;;;;;;8.08;76.14;99702.70;108989;1258;59863;-61
2023/12/27 08:42:53;;;;;;;10.10;2.40;;;;;;;8.86;70.84;99701.95;109075;1258;60288;-62
2023/12/27 08:45:40;;;;;;;8.20;2.50;;;;;;;9.50;66.36;99714.38;108961;1260;73238;-62
2023/12/27 08:48:29;;;;;;;10.00;2.20;;;;;;;10.04;64.38;99720.53;109055;1260;67867;-60
2023/12/27 08:51:17;;;;;;;8.70;2.70;;;;;;;10.61;61.54;99724.41;109070;1259;73734;-63
2023/12/27 08:54:05;;;;;;;8.90;2.70;;;;;;;11.01;61.62;99729.21;108944;1260;58241;-60
2023/12/27 08:56:53;;;;;;;9.50;2.50;;;;;;;10.74;58.30;99735.02;108915;1261;61346;-61
2023/12/27 08:59:41;;;;;;;9.20;2.20;;;;;;;10.40;59.48;99741.73;109027;1259;73113;-63
2023/12/27 09:02:29;;;;;;;9.70;2.50;;;;;;;10.16;60.53;99740.30;108898;1260;67915;-62
2023/12/27 09:05:17;;;;;;;11.30;2.60;;;;;;;10.56;59.81;99734.54;108801;1260;72541;-63
2023/12/27 09:08:05;;;;;;;9.40;2.50;;;;;;;11.06;58.53;99730.79;108992;1259;59071;-62
2023/12/27 09:10:53;;;;;;;11.20;2.60;;;;;;;11.77;57.50;99727.52;108895;1259;58715;-62
2023/12/27 09:13:41;;;;;;;11.80;2.90;;;;;;;12.23;54.45;99725.42;109026;1259;73565;-64
2023/12/27 09:16:29;;;;;;;11.40;3.00;;;;;;;12.52;52.79;99727.44;108917;1260;67863;-64
2023/12/27 09:19:17;;;;;;;12.20;3.00;;;;;;;13.06;51.95;99722.67;108861;1260;71427;-62
2023/12/27 09:22:06;;;;;;;9.50;2.40;;;;;;;13.30;50.89;99721.69;108247;1260;1002224;-61
2023/12/27 09:24:54;;;;;;;9.90;2.60;;;;;;;13.66;48.40;99732.71;108990;1259;59160;-61
2023/12/27 09:27:44;;;;;;;11.20;2.90;;;;;;;14.15;47.33;99739.60;108941;1262;73088;-60
2023/12/27 09:30:32;;;;;;;8.90;2.50;;;;;;;14.35;46.20;99743.90;109011;1260;66854;-62
2023/12/27 09:33:20;;;;;;;9.60;2.80;;;;;;;14.63;46.11;99754.86;109000;1259;70801;-60
2023/12/27 09:36:08;;;;;;;11.40;2.90;;;;;;;15.11;44.36;99755.77;109035;1260;57687;-63
2023/12/27 09:38:56;;;;;;;15.00;2.70;;;;;;;14.90;43.21;99765.57;108930;1259;58731;-60
2023/12/27 09:41:44;;;;;;;9.40;2.00;;;;;;;14.84;43.14;99766.55;108999;1260;74046;-62
2023/12/27 09:44:34;;;;;;;10.80;2.70;;;;;;;14.02;43.62;99763.50;108915;1260;67666;-62
2023/12/27 09:47:23;;;;;;;9.80;2.40;;;;;;;12.90;45.63;99771.86;108939;1260;71574;-61
2023/12/27 09:50:12;;;;;;;10.20;2.20;;;;;;;11.33;48.55;99775.66;108939;1259;57773;-63
2023/12/27 09:53:03;;;;;;;10.90;2.30;;;;;;;11.13;50.43;99776.65;108951;1260;58639;-64
2023/12/27 09:55:53;;;;;;;11.10;2.80;;;;;;;12.37;48.30;99771.86;108945;1258;73073;-62
2023/12/27 09:58:42;;;;;;;9.80;2.40;;;;;;;13.08;46.26;99779.12;108940;1260;68914;-63
2023/12/27 10:01:43;;;;;;;11.90;2.80;;;;;;;13.77;44.98;99777.14;108919;1259;71813;-62
2023/12/27 10:04:47;;;;;;;9.40;2.70;;;;;;;14.88;43.06;99782.92;108997;1261;57617;-64
2023/12/27 10:07:39;;;;;;;11.60;3.40;;;;;;;14.94;42.45;99787.36;109006;1259;60947;-65
2023/12/27 10:10:28;;;;;;;15.20;4.00;;;;;;;13.11;44.12;99794.85;109043;1258;73927;-64
2023/12/27 10:13:19;;;;;;;9.90;2.90;;;;;;;11.60;47.14;99793.97;108765;1266;66348;-62
2023/12/27 10:16:07;;;;;;;10.20;2.40;;;;;;;10.27;50.39;99800.00;108751;1263;71325;-62
2023/12/27 10:18:54;;;;;;;8.30;2.20;;;;;;;9.05;53.86;99804.70;108767;1264;58175;-63
2023/12/27 10:21:43;;;;;;;9.80;2.80;;;;;;;8.10;58.05;99806.34;105735;1264;1002921;-63
2023/12/27 10:24:34;;;;;;;14.20;3.10;;;;;;;7.33;62.25;99813.05;108793;1263;70845;-61
2023/12/27 10:27:23;;;;;;;12.70;3.00;;;;;;;6.56;67.71;99819.89;108732;1263;67665;-61
2023/12/27 10:30:13;;;;;;;12.30;2.20;;;;;;;6.26;71.10;99818.45;108695;1263;73424;-61
2023/12/27 10:33:02;;;;;;;11.90;2.40;;;;;;;6.54;71.10;99806.11;108739;1264;57415;-62
2023/12/27 10:35:54;;;;;;;10.60;2.30;;;;;;;6.36;71.43;99805.70;108758;1264;60125;-62
2023/12/27 10:38:41;;;;;;;12.00;2.40;;;;;;;7.63;68.90;99795.73;108702;1263;73322;-63
2023/12/27 10:41:32;;;;;;;12.00;3.50;;;;;;;9.68;62.35;99789.55;108745;1263;68685;-63
2023/12/27 10:44:20;;;;;;;10.60;2.80;;;;;;;11.45;55.75;99783.71;108891;1259;72775;-64
2023/12/27 10:47:11;;;;;;;10.80;2.50;;;;;;;12.42;49.41;99784.68;109015;1260;57324;-61
2023/12/27 10:50:02;;;;;;;9.70;2.20;;;;;;;12.66;48.18;99780.59;109062;1261;60282;-62
2023/12/27 10:52:59;;;;;;;8.90;2.00;;;;;;;12.36;47.59;99793.48;108975;1260;73008;-60
2023/12/27 10:55:48;;;;;;;11.00;2.40;;;;;;;11.92;47.88;99795.54;109031;1259;67015;-61
2023/12/27 10:58:40;;;;;;;9.00;2.00;;;;;;;11.68;47.49;99802.86;108943;1259;72456;-62
2023/12/27 11:01:28;;;;;;;12.40;2.60;;;;;;;10.39;50.29;99817.55;109059;1260;57290;-63
2023/12/27 11:04:17;;;;;;;12.30;2.60;;;;;;;9.50;52.40;99821.09;108927;1261;59959;-62
2023/12/27 11:07:05;;;;;;;10.20;2.50;;;;;;;8.73;55.10;99824.09;108995;1259;73914;-62
2023/12/27 11:09:56;;;;;;;8.90;2.30;;;;;;;8.54;55.78;99821.16;108996;1258;68925;-63
2023/12/27 11:12:46;;;;;;;8.30;1.90;;;;;;;7.75;57.81;99833.13;108992;1259;72667;-64
2023/12/27 11:15:37;;;;;;;9.50;2.20;;;;;;;7.20;60.21;99846.08;108998;1260;58777;-63
2023/12/27 11:18:25;;;;;;;11.80;2.40;;;;;;;6.76;61.30;99845.75;108985;1257;60340;-61
2023/12/27 11:21:15;;;;;;;11.50;2.20;;;;;;;6.26;63.38;99848.58;108981;1259;72797;-63
2023/12/27 11:24:04;;;;;;;7.10;2.00;;;;;;;5.99;64.65;99845.73;109099;1258;68033;-62
2023/12/27 11:27:02;;;;;;;8.20;2.00;;;;;;;5.80;65.96;99853.15;108954;1259;71299;-62
2023/12/27 11:29:49;;;;;;;13.10;2.50;;;;;;;5.37;67.83;99863.12;108969;1260;57366;-65
2023/12/27 11:32:41;;;;;;;12.50;2.80;;;;;;;5.12;69.23;99866.53;109029;1258;61375;-62
2023/12/27 11:35:32;;;;;;;11.40;2.60;;;;;;;5.08;69.85;99870.48;108851;1260;73923;-66
2023/12/27 11:38:26;;;;;;;9.70;2.60;;;;;;;4.97;70.79;99874.10;108871;1257;65713;-64
2023/12/27 11:41:14;;;;;;;10.30;2.30;;;;;;;4.82;71.81;99877.58;108997;1258;72646;-63
2023/12/27 11:44:03;;;;;;;9.60;2.30;;;;;;;4.60;73.56;99877.20;108948;1257;57888;-65
2023/12/27 11:46:52;;;;;;;14.80;3.40;;;;;;;4.50;73.88;99885.66;108296;1259;1002411;-64
2023/12/27 11:49:41;;;;;;;10.70;2.40;;;;;;;4.49;74.24;99884.17;109016;1259;70573;-63
2023/12/27 11:52:29;;;;;;;13.90;3.30;;;;;;;4.44;74.92;99882.48;109012;1258;66638;-63
2023/12/27 11:55:22;;;;;;;11.70;2.60;;;;;;;4.32;75.39;99879.84;108988;1260;73724;-60
2023/12/27 11:58:10;;;;;;;11.40;3.10;;;;;;;4.26;75.58;99876.61;109019;1258;57456;-63
2023/12/27 12:01:20;;;;;;;16.10;3.70;;;;;;;4.21;75.80;99879.52;109092;1257;59125;-65
2023/12/27 12:04:36;;;;;;;13.80;2.90;;;;;;;4.19;75.83;99884.04;108973;1260;73100;-63
2023/12/27 12:08:11;;;;;;;14.40;3.20;;;;;;;4.18;75.17;99885.48;109012;1260;66428;-63
2023/12/27 12:11:06;;;;;;;12.60;2.90;;;;;;;4.11;75.50;99894.31;108516;1266;72547;-62
2023/12/27 12:13:55;;;;;;;10.20;2.90;;;;;;;4.00;75.79;99895.20;107786;1267;1002999;-63
2023/12/27 12:16:43;;;;;;;13.40;3.20;;;;;;;3.91;75.84;99898.34;108443;1267;58904;-63
2023/12/27 12:19:31;;;;;;;9.70;2.70;;;;;;;3.84;76.04;99902.91;108453;1265;71815;-62
2023/12/27 12:22:19;;;;;;;11.40;2.40;;;;;;;3.77;76.24;99899.55;108539;1266;66789;-61
2023/12/27 12:25:08;;;;;;;7.80;1.90;;;;;;;3.71;77.37;99903.73;107818;1265;1002907;-68
2023/12/27 12:27:55;;;;;;;9.70;2.20;;;;;;;3.65;78.78;99911.27;108504;1266;58208;-63
2023/12/27 12:30:46;;;;;;;13.30;3.20;;;;;;;3.55;80.13;99909.80;108589;1266;60073;-63
2023/12/27 12:33:35;;;;;;;10.80;2.30;;;;;;;3.50;81.84;99924.84;108503;1265;72716;-62
2023/12/27 12:36:23;;;;;;;12.90;2.10;;;;;;;3.42;82.97;99921.38;108604;1265;67993;-64
2023/12/27 12:39:14;;;;;;;26.60;2.90;;;;;;;3.36;83.87;99923.92;108512;1266;72769;-61
2023/12/27 12:42:02;;;;;;;11.10;2.50;;;;;;;3.33;84.18;99927.77;108388;1266;57847;-61
2023/12/27 12:44:50;;;;;;;11.80;2.80;;;;;;;3.33;84.70;99920.77;108582;1266;60321;-64
2023/12/27 12:47:37;;;;;;;8.60;2.30;;;;;;;3.33;84.81;99922.84;108989;1257;73131;-62
2023/12/27 12:50:25;;;;;;;14.90;2.60;;;;;;;3.34;85.50;99929.15;108965;1257;68011;-63
2023/12/27 12:53:18;;;;;;;11.60;2.60;;;;;;;3.35;85.54;99932.77;109011;1257;72906;-63
2023/12/27 12:56:08;;;;;;;13.70;2.50;;;;;;;3.33;85.81;99935.64;108991;1258;57355;-63
2023/12/27 12:58:56;;;;;;;11.60;2.60;;;;;;;3.31;86.65;99942.44;108970;1258;59501;-61
2023/12/27 13:01:44;;;;;;;8.50;2.30;;;;;;;3.23;88.77;99944.39;108923;1260;73748;-63
2023/12/27 13:04:31;;;;;;;12.10;2.30;;;;;;;3.12;90.58;99949.29;109090;1257;67995;-62